createdAt,value
2023-04-29T05:00:05.423Z,6.00
2023-04-29T05:02:32.682Z,6.00
2023-04-29T05:04:59.655Z,6.00
2023-04-29T05:07:26.795Z,6.10
2023-04-29T05:09:53.919Z,6.10
2023-04-29T05:12:21.038Z,6.10
2023-04-29T05:14:47.895Z,6.10
2023-04-29T05:17:14.748Z,6.10
2023-04-29T05:19:41.622Z,6.10
2023-04-29T05:22:08.603Z,6.10
2023-04-29T05:24:35.698Z,6.00
2023-04-29T05:27:04.687Z,5.90
2023-04-29T05:29:31.660Z,5.90
2023-04-29T05:31:58.982Z,5.90
2023-04-29T05:34:26.417Z,5.90
2023-04-29T05:36:53.358Z,6.00
2023-04-29T05:39:20.224Z,5.90
2023-04-29T05:41:47.208Z,5.90
2023-04-29T05:44:14.158Z,5.80
2023-04-29T05:46:41.418Z,5.70
2023-04-29T05:49:09.002Z,5.70
2023-04-29T05:51:35.920Z,5.80
2023-04-29T05:54:02.770Z,5.80
2023-04-29T05:56:29.911Z,5.90
2023-04-29T05:58:56.781Z,5.80
2023-04-29T06:01:23.685Z,5.70
2023-04-29T06:03:51.132Z,5.80
2023-04-29T06:06:18.682Z,5.80
2023-04-29T06:08:45.760Z,5.80
2023-04-29T06:11:12.628Z,5.70
2023-04-29T06:13:39.503Z,5.80
2023-04-29T06:16:07.637Z,5.80
2023-04-29T06:18:34.588Z,5.80
2023-04-29T06:21:01.436Z,5.90
2023-04-29T06:23:28.292Z,6.00
2023-04-29T06:25:55.158Z,6.00
2023-04-29T06:28:22.049Z,6.10
2023-04-29T06:30:49.050Z,6.10
2023-04-29T06:33:16.037Z,6.10
2023-04-29T06:35:43.103Z,6.20
2023-04-29T06:38:09.984Z,6.20
2023-04-29T06:40:36.885Z,6.20
2023-04-29T06:43:04.651Z,6.20
2023-04-29T06:45:31.793Z,6.20
2023-04-29T06:47:58.695Z,6.20
2023-04-29T06:50:26.229Z,6.20
2023-04-29T06:52:53.319Z,6.10
2023-04-29T06:55:21.251Z,6.20
2023-04-29T06:57:48.128Z,6.20
2023-04-29T07:00:16.056Z,6.20
2023-04-29T07:02:43.351Z,6.30
2023-04-29T07:05:10.550Z,6.40
2023-04-29T07:07:37.466Z,6.40
2023-04-29T07:10:04.627Z,6.40
2023-04-29T07:12:31.562Z,6.40
2023-04-29T07:14:58.629Z,6.50
2023-04-29T07:17:25.763Z,6.50
2023-04-29T07:19:53.710Z,6.60
2023-04-29T07:22:20.817Z,6.70
2023-04-29T07:24:47.718Z,6.80
2023-04-29T07:27:14.598Z,6.80
2023-04-29T07:29:41.467Z,6.80
2023-04-29T07:32:08.358Z,6.90
2023-04-29T07:34:35.300Z,7.00
2023-04-29T07:37:02.213Z,7.00
2023-04-29T07:39:30.126Z,7.00
2023-04-29T07:41:57.010Z,7.00
2023-04-29T07:44:23.877Z,7.10
2023-04-29T07:46:50.882Z,7.10
2023-04-29T07:49:17.827Z,7.00
2023-04-29T07:51:44.748Z,7.10
2023-04-29T07:54:11.705Z,7.10
2023-04-29T07:56:38.581Z,7.20
2023-04-29T07:59:05.450Z,7.10
2023-04-29T08:01:32.915Z,7.20
2023-04-29T08:03:59.992Z,7.40
2023-04-29T08:06:27.256Z,7.30
2023-04-29T08:08:56.315Z,7.30
2023-04-29T08:11:24.593Z,7.40
2023-04-29T08:13:51.527Z,7.30
2023-04-29T08:16:18.770Z,7.30
2023-04-29T08:18:45.758Z,7.50
2023-04-29T08:21:12.742Z,7.70
2023-04-29T08:23:40.537Z,7.80
2023-04-29T08:26:07.983Z,8.00
2023-04-29T08:28:34.829Z,7.90
2023-04-29T08:31:01.706Z,8.00
2023-04-29T08:33:28.831Z,8.20
2023-04-29T08:36:00.401Z,8.20
2023-04-29T08:38:28.098Z,8.20
2023-04-29T08:40:55.030Z,8.10
2023-04-29T08:43:22.501Z,8.20
2023-04-29T08:45:50.126Z,8.40
2023-04-29T08:48:18.071Z,8.60
2023-04-29T08:50:45.207Z,8.70
2023-04-29T08:53:13.821Z,8.70
2023-04-29T08:55:48.506Z,8.80
2023-04-29T08:58:16.365Z,8.70
2023-04-29T09:00:44.533Z,8.50
2023-04-29T09:03:21.649Z,8.40
2023-04-29T09:05:52.794Z,8.50
2023-04-29T09:08:22.470Z,8.50
2023-04-29T09:10:50.093Z,8.60
2023-04-29T09:13:31.141Z,8.80
2023-04-29T09:15:58.491Z,9.00
2023-04-29T09:18:45.869Z,9.20
2023-04-29T09:21:19.646Z,9.30
2023-04-29T09:23:53.716Z,9.40
2023-04-29T09:26:21.345Z,9.40
2023-04-29T09:29:05.700Z,9.00
2023-04-29T09:31:32.613Z,9.00
2023-04-29T09:33:59.740Z,9.30
2023-04-29T09:36:38.965Z,9.40
2023-04-29T09:39:11.434Z,9.60
2023-04-29T09:41:59.823Z,9.70
2023-04-29T09:44:34.314Z,9.80
2023-04-29T09:47:05.382Z,10.00
2023-04-29T09:49:37.250Z,10.10
2023-04-29T09:52:06.083Z,10.20
2023-04-29T09:54:37.106Z,10.20
2023-04-29T09:57:08.386Z,10.30
2023-04-29T09:59:40.381Z,10.30
2023-04-29T10:02:18.778Z,10.20
2023-04-29T10:04:54.528Z,10.10
2023-04-29T10:07:22.386Z,10.10
2023-04-29T10:09:49.390Z,9.90
2023-04-29T10:12:20.947Z,9.90
2023-04-29T10:15:02.858Z,9.90
2023-04-29T10:17:46.094Z,9.80
2023-04-29T10:20:18.293Z,9.70
2023-04-29T10:22:50.552Z,9.80
2023-04-29T10:25:19.992Z,9.50
2023-04-29T10:27:49.021Z,9.70
2023-04-29T10:30:17.841Z,9.80
2023-04-29T10:35:20.196Z,9.70
2023-04-29T10:37:49.071Z,10.00
2023-04-29T10:40:30.834Z,10.10
2023-04-29T10:42:58.254Z,10.40
2023-04-29T10:45:35.202Z,10.30
2023-04-29T10:48:06.256Z,10.10
2023-04-29T10:50:34.990Z,10.40
2023-04-29T10:53:05.637Z,10.10
2023-04-29T10:55:35.895Z,10.20
2023-04-29T10:58:04.197Z,10.30
2023-04-29T11:00:34.186Z,10.40
2023-04-29T11:03:02.495Z,10.40
2023-04-29T11:05:37.087Z,10.40
2023-04-29T11:08:16.609Z,10.40
2023-04-29T11:10:44.180Z,10.30
2023-04-29T11:13:31.291Z,10.20
2023-04-29T11:16:08.832Z,10.30
2023-04-29T11:18:37.752Z,10.30
2023-04-29T11:21:08.029Z,10.40
2023-04-29T11:23:39.481Z,10.50
2023-04-29T11:26:06.439Z,10.60
2023-04-29T11:28:33.949Z,10.70
2023-04-29T11:31:01.203Z,10.80
2023-04-29T11:33:28.431Z,10.80
2023-04-29T11:35:56.003Z,10.80
2023-04-29T11:38:30.504Z,10.80
2023-04-29T11:40:58.384Z,11.00
2023-04-29T11:43:25.877Z,11.10
2023-04-29T11:45:53.901Z,11.10
2023-04-29T11:48:21.974Z,11.30
2023-04-29T11:50:54.981Z,11.30
2023-04-29T11:53:24.861Z,11.40
2023-04-29T11:55:54.056Z,11.50
2023-04-29T11:58:24.969Z,11.50
2023-04-29T12:00:54.852Z,11.60
2023-04-29T12:03:22.114Z,11.80
2023-04-29T12:05:52.533Z,12.10
2023-04-29T12:08:30.250Z,12.30
2023-04-29T12:10:58.666Z,11.90
2023-04-29T12:13:28.355Z,12.10
2023-04-29T12:15:57.297Z,12.30
2023-04-29T12:18:24.989Z,12.40
2023-04-29T12:20:52.049Z,12.40
2023-04-29T12:23:24.087Z,12.50
2023-04-29T12:25:53.152Z,12.40
2023-04-29T12:28:21.057Z,12.00
2023-04-29T12:30:49.160Z,11.50
2023-04-29T12:33:30.050Z,11.50
2023-04-29T12:35:58.256Z,11.40
2023-04-29T12:38:27.759Z,11.20
2023-04-29T12:40:59.267Z,11.40
2023-04-29T12:43:29.953Z,11.70
2023-04-29T12:46:08.141Z,11.70
2023-04-29T12:48:41.793Z,11.70
2023-04-29T12:51:10.546Z,11.40
2023-04-29T12:53:38.006Z,11.70
2023-04-29T12:56:06.373Z,12.00
2023-04-29T12:58:34.982Z,12.20
2023-04-29T13:01:02.027Z,12.40
2023-04-29T13:03:29.200Z,12.30
2023-04-29T13:05:56.415Z,12.10
2023-04-29T13:08:23.377Z,12.00
2023-04-29T13:10:50.347Z,12.00
2023-04-29T13:13:17.214Z,11.90
2023-04-29T13:15:44.262Z,11.90
2023-04-29T13:18:11.396Z,11.90
2023-04-29T13:20:41.913Z,11.90
2023-04-29T13:23:09.703Z,12.10
2023-04-29T13:25:36.613Z,12.30
2023-04-29T13:28:05.610Z,12.30
2023-04-29T13:30:33.313Z,12.40
2023-04-29T13:33:08.363Z,12.40
2023-04-29T13:35:40.263Z,12.20
2023-04-29T13:38:08.154Z,12.20
2023-04-29T13:40:39.285Z,12.10
2023-04-29T13:43:09.793Z,11.60
2023-04-29T13:45:41.252Z,11.60
2023-04-29T13:48:21.146Z,11.70
2023-04-29T13:51:34.222Z,11.30
2023-04-29T13:54:41.438Z,11.20
2023-04-29T14:04:01.941Z,11.10
2023-04-29T14:06:29.482Z,10.90
2023-04-29T14:08:56.365Z,10.80
2023-04-29T14:11:23.335Z,10.90
2023-04-29T14:13:50.507Z,10.70
2023-04-29T14:16:17.584Z,10.90
2023-04-29T14:18:44.646Z,10.70
2023-04-29T14:21:11.876Z,10.80
2023-04-29T14:23:38.742Z,10.60
2023-04-29T14:26:26.495Z,10.80
2023-04-29T14:28:57.758Z,10.80
2023-04-29T14:31:27.981Z,10.80
2023-04-29T14:33:56.186Z,10.80
2023-04-29T14:36:23.227Z,10.70
2023-04-29T14:38:50.135Z,10.80
2023-04-29T14:41:17.176Z,10.80
2023-04-29T14:43:44.473Z,10.80
2023-04-29T14:46:11.795Z,10.80
2023-04-29T14:48:38.795Z,10.80
2023-04-29T14:51:06.382Z,10.80
2023-04-29T14:53:33.761Z,10.70
2023-04-29T14:56:00.953Z,10.70
2023-04-29T14:58:28.308Z,10.80
2023-04-29T15:00:56.305Z,10.90
2023-04-29T15:03:23.707Z,10.70
2023-04-29T15:05:51.593Z,10.80
2023-04-29T15:08:19.403Z,10.90
2023-04-29T15:10:47.726Z,10.80
2023-04-29T15:13:15.042Z,11.00
2023-04-29T15:15:42.286Z,11.40
2023-04-29T15:18:09.344Z,11.80
2023-04-29T15:20:37.345Z,12.30
2023-04-29T15:23:05.598Z,12.20
2023-04-29T15:25:36.270Z,11.80
2023-04-29T15:28:04.929Z,11.20
2023-04-29T15:30:32.300Z,11.00
2023-04-29T15:32:59.374Z,11.00
2023-04-29T15:35:26.449Z,11.00
2023-04-29T15:37:56.766Z,11.50
2023-04-29T15:40:23.698Z,11.20
2023-04-29T15:42:50.592Z,11.30
2023-04-29T15:45:17.548Z,11.40
2023-04-29T15:47:44.601Z,11.50
2023-04-29T15:50:11.651Z,11.10
2023-04-29T15:52:38.595Z,10.50
2023-04-29T15:55:06.835Z,10.60
2023-04-29T15:57:34.867Z,10.50
2023-04-29T16:00:01.959Z,10.50
2023-04-29T16:02:28.957Z,10.40
2023-04-29T16:04:56.186Z,10.20
2023-04-29T16:07:23.098Z,10.30
2023-04-29T16:09:49.965Z,10.20
2023-04-29T16:12:16.893Z,10.30
2023-04-29T16:14:43.780Z,10.10
2023-04-29T16:17:10.678Z,10.00
2023-04-29T16:19:37.587Z,10.10
2023-04-29T16:22:04.780Z,9.50
2023-04-29T16:24:32.064Z,9.60
2023-04-29T16:26:59.394Z,9.50
2023-04-29T16:29:26.546Z,9.60
2023-04-29T16:31:53.531Z,9.60
2023-04-29T16:34:20.633Z,9.70
2023-04-29T16:36:47.695Z,9.60
2023-04-29T16:39:14.718Z,9.60
2023-04-29T16:41:41.849Z,9.40
2023-04-29T16:44:09.086Z,9.30
2023-04-29T16:46:36.238Z,9.30
2023-04-29T16:49:03.429Z,9.30
2023-04-29T16:51:30.658Z,9.20
2023-04-29T16:53:57.608Z,9.00
2023-04-29T16:56:24.536Z,8.90
2023-04-29T16:58:51.737Z,8.70
2023-04-29T17:01:19.802Z,8.70
2023-04-29T17:03:47.975Z,8.60
2023-04-29T17:06:15.771Z,8.60
2023-04-29T17:08:43.145Z,8.60
2023-04-29T17:11:10.512Z,8.70
2023-04-29T17:13:37.460Z,8.70
2023-04-29T17:16:04.703Z,8.70
2023-04-29T17:18:31.637Z,8.70
2023-04-29T17:20:59.426Z,8.50
2023-04-29T17:23:26.369Z,8.60
2023-04-29T17:25:54.748Z,8.60
2023-04-29T17:28:21.633Z,8.70
2023-04-29T17:30:48.539Z,8.80
2023-04-29T17:33:17.469Z,8.80
2023-04-29T17:35:45.329Z,8.80
2023-04-29T17:38:12.365Z,8.50
2023-04-29T17:40:39.473Z,8.40
2023-04-29T17:43:06.356Z,8.40
2023-04-29T17:45:33.484Z,8.60
2023-04-29T17:48:00.728Z,8.40
2023-04-29T17:50:27.885Z,8.60
2023-04-29T17:52:54.797Z,8.70
2023-04-29T17:55:21.799Z,8.80
2023-04-29T17:57:48.744Z,8.80
2023-04-29T18:00:15.962Z,8.80
2023-04-29T18:02:42.962Z,8.80
2023-04-29T18:05:10.176Z,8.70
2023-04-29T18:07:37.076Z,8.60
2023-04-29T18:10:06.055Z,8.40
2023-04-29T18:12:33.199Z,8.50
2023-04-29T18:15:00.813Z,8.30
2023-04-29T18:17:27.882Z,8.20
2023-04-29T18:19:55.012Z,8.30
2023-04-29T18:22:22.115Z,8.30
2023-04-29T18:24:49.786Z,8.40
2023-04-29T18:27:16.725Z,8.50
2023-04-29T18:29:45.181Z,8.40
2023-04-29T18:32:12.232Z,8.30
2023-04-29T18:34:39.228Z,8.50
2023-04-29T18:37:06.119Z,8.50
2023-04-29T18:39:33.225Z,8.50
2023-04-29T18:42:00.378Z,8.50
2023-04-29T18:44:28.155Z,8.40
2023-04-29T18:46:55.095Z,8.40
2023-04-29T18:49:22.013Z,8.40
2023-04-29T18:51:49.876Z,8.30
2023-04-29T18:54:18.885Z,8.40
2023-04-29T18:56:47.931Z,8.40
2023-04-29T18:59:19.308Z,8.40
2023-04-29T19:01:47.746Z,8.30
2023-04-29T19:04:15.531Z,8.20
2023-04-29T19:06:43.073Z,8.10
2023-04-29T19:09:11.357Z,8.10
2023-04-29T19:11:38.412Z,7.90
2023-04-29T19:14:06.084Z,7.90
2023-04-29T19:16:35.423Z,7.90
2023-04-29T19:19:04.258Z,7.90
2023-04-29T19:21:33.310Z,8.00
2023-04-29T19:24:00.388Z,8.00
2023-04-29T19:26:27.928Z,8.10
2023-04-29T19:28:54.978Z,8.00
2023-04-29T19:31:21.999Z,7.90
2023-04-29T19:33:48.981Z,7.90
2023-04-29T19:36:15.956Z,7.80
2023-04-29T19:38:42.846Z,7.80
2023-04-29T19:41:09.852Z,7.70
2023-04-29T19:43:36.816Z,7.80
2023-04-29T19:46:03.863Z,7.80
2023-04-29T19:48:30.977Z,7.90
2023-04-29T19:50:59.677Z,7.90
2023-04-29T19:53:27.127Z,8.00
2023-04-29T19:55:54.151Z,8.00
2023-04-29T19:58:21.086Z,7.90
2023-04-29T20:00:48.230Z,7.90
2023-04-29T20:03:16.011Z,8.00
2023-04-29T20:05:43.431Z,7.90
2023-04-29T20:08:10.659Z,7.80
2023-04-29T20:10:37.735Z,7.90
2023-04-29T20:13:04.625Z,7.90
2023-04-29T20:15:31.533Z,7.90
2023-04-29T20:17:58.894Z,7.90
2023-04-29T20:20:26.167Z,7.90
2023-04-29T20:22:58.013Z,7.80
2023-04-29T20:25:25.838Z,7.80
2023-04-29T20:27:57.518Z,7.90
2023-04-29T20:30:26.184Z,7.80
2023-04-29T20:32:53.184Z,7.70
2023-04-29T20:35:21.046Z,7.70
2023-04-29T20:37:47.957Z,7.70
2023-04-29T20:40:14.851Z,7.70
2023-04-29T20:42:42.002Z,7.80
2023-04-29T20:45:09.730Z,7.80
2023-04-29T20:47:36.666Z,7.80
2023-04-29T20:50:04.817Z,7.80
2023-04-29T20:52:31.763Z,7.80
2023-04-29T20:54:58.896Z,7.80
2023-04-29T20:57:25.925Z,7.80
2023-04-29T20:59:53.176Z,7.80
2023-04-29T21:02:21.428Z,7.80
2023-04-29T21:04:48.657Z,7.70
2023-04-29T21:07:15.762Z,7.70
2023-04-29T21:09:42.642Z,7.70
2023-04-29T21:12:09.607Z,7.70
2023-04-29T21:14:37.543Z,7.70
2023-04-29T21:17:04.691Z,7.70
2023-04-29T21:19:31.636Z,7.70
2023-04-29T21:21:58.555Z,7.70
2023-04-29T21:24:26.936Z,7.70
2023-04-29T21:26:53.842Z,7.80
2023-04-29T21:29:20.755Z,7.70
2023-04-29T21:31:47.744Z,7.70
2023-04-29T21:34:14.711Z,7.80
2023-04-29T21:36:41.612Z,7.70
2023-04-29T21:39:11.901Z,7.70
2023-04-29T21:41:42.982Z,7.70
2023-04-29T21:44:10.090Z,7.60
2023-04-29T21:46:37.183Z,7.60
2023-04-29T21:49:04.225Z,7.60
2023-04-29T21:51:31.984Z,7.70
2023-04-29T21:53:58.902Z,7.70
2023-04-29T21:56:25.806Z,7.70
2023-04-29T21:58:53.573Z,7.70
2023-04-29T22:01:27.658Z,7.70
2023-04-29T22:03:57.178Z,7.60
2023-04-29T22:06:24.972Z,7.60
2023-04-29T22:08:51.946Z,7.70
2023-04-29T22:11:21.802Z,7.60
2023-04-29T22:13:48.993Z,7.70
2023-04-29T22:16:16.481Z,7.60
2023-04-29T22:18:43.411Z,7.70
2023-04-29T22:21:10.582Z,7.70
2023-04-29T22:23:37.470Z,7.50
2023-04-29T22:26:04.366Z,7.50
2023-04-29T22:28:31.277Z,7.40
2023-04-29T22:30:58.138Z,7.50
2023-04-29T22:33:25.057Z,7.60
2023-04-29T22:35:51.964Z,7.60
2023-04-29T22:38:25.082Z,7.60
2023-04-29T22:40:52.873Z,7.50
2023-04-29T22:43:19.875Z,7.60
2023-04-29T22:45:54.143Z,7.60
2023-04-29T22:48:21.240Z,7.60
2023-04-29T22:50:52.662Z,7.60
2023-04-29T22:53:20.416Z,7.60
2023-04-29T22:55:51.909Z,7.50
2023-04-29T22:58:19.626Z,7.60
2023-04-29T23:00:51.028Z,7.60
2023-04-29T23:03:18.599Z,7.60
2023-04-29T23:05:46.080Z,7.60
2023-04-29T23:08:12.978Z,7.60
2023-04-29T23:10:39.826Z,7.60
2023-04-29T23:13:06.879Z,7.50
2023-04-29T23:15:33.784Z,7.60
2023-04-29T23:18:00.722Z,7.60
2023-04-29T23:20:27.615Z,7.60
2023-04-29T23:22:54.456Z,7.60
2023-04-29T23:25:21.482Z,7.60
2023-04-29T23:27:48.378Z,7.60
2023-04-29T23:30:15.482Z,7.50
2023-04-29T23:32:42.384Z,7.50
2023-04-29T23:35:11.463Z,7.50
2023-04-29T23:37:39.331Z,7.50
2023-04-29T23:40:07.859Z,7.50
2023-04-29T23:42:34.812Z,7.50
2023-04-29T23:45:01.641Z,7.50
2023-04-29T23:47:28.569Z,7.60
2023-04-29T23:49:55.752Z,7.50
2023-04-29T23:52:23.310Z,7.60
2023-04-29T23:54:50.237Z,7.50
2023-04-29T23:57:17.882Z,7.50
2023-04-29T23:59:45.664Z,7.50
